createdAt,value
2018-04-09T00:01:35.967Z,29.83
2018-04-09T00:04:03.278Z,24.13
2018-04-09T00:06:30.566Z,20.37
2018-04-09T00:08:57.875Z,20.60
2018-04-09T00:11:25.175Z,25.30
2018-04-09T00:13:52.489Z,22.33
2018-04-09T00:16:19.916Z,25.00
2018-04-09T00:18:47.195Z,17.53
2018-04-09T00:21:14.560Z,20.30
2018-04-09T00:23:41.825Z,23.17
2018-04-09T00:26:09.119Z,19.17
2018-04-09T00:28:36.419Z,16.80
2018-04-09T00:31:03.706Z,22.30
2018-04-09T00:33:31.004Z,16.63
2018-04-09T00:35:58.338Z,16.50
2018-04-09T00:38:25.623Z,13.00
2018-04-09T00:40:52.912Z,18.73
2018-04-09T00:43:20.216Z,15.07
2018-04-09T00:45:47.487Z,18.37
2018-04-09T00:48:14.788Z,12.17
2018-04-09T00:50:42.059Z,17.10
2018-04-09T00:53:09.343Z,9.27
2018-04-09T00:55:36.616Z,12.27
2018-04-09T00:58:03.915Z,8.40
2018-04-09T01:00:31.187Z,11.53
2018-04-09T01:02:58.519Z,9.63
2018-04-09T01:05:25.816Z,12.67
2018-04-09T01:07:53.099Z,12.40
2018-04-09T01:10:20.409Z,20.07
2018-04-09T01:12:47.685Z,19.50
2018-04-09T01:15:14.983Z,15.47
2018-04-09T01:17:42.238Z,21.50
2018-04-09T01:20:09.521Z,11.50
2018-04-09T01:22:36.806Z,10.57
2018-04-09T01:25:04.100Z,12.03
2018-04-09T01:27:31.394Z,9.90
2018-04-09T01:29:58.685Z,16.23
2018-04-09T01:32:25.981Z,13.73
2018-04-09T01:34:53.246Z,9.70
2018-04-09T01:37:20.543Z,16.60
2018-04-09T01:39:47.845Z,16.50
2018-04-09T01:42:15.147Z,21.07
2018-04-09T01:44:42.442Z,21.60
2018-04-09T01:47:09.715Z,14.07
2018-04-09T01:49:37.005Z,13.90
2018-04-09T01:52:04.281Z,18.20
2018-04-09T01:54:31.578Z,17.57
2018-04-09T01:56:58.910Z,14.47
2018-04-09T01:59:26.198Z,10.70
2018-04-09T02:01:53.788Z,19.50
2018-04-09T02:04:21.064Z,17.63
2018-04-09T02:06:48.349Z,19.90
2018-04-09T02:09:15.627Z,15.20
2018-04-09T02:11:42.930Z,20.93
2018-04-09T02:14:10.207Z,12.00
2018-04-09T02:16:37.492Z,11.43
2018-04-09T02:19:04.774Z,19.30
2018-04-09T02:21:32.080Z,16.80
2018-04-09T02:23:59.370Z,49.77
2018-04-09T02:26:26.658Z,22.70
2018-04-09T02:28:53.951Z,29.43
2018-04-09T02:31:21.227Z,57.50
2018-04-09T02:33:48.513Z,15.43
2018-04-09T02:36:15.799Z,18.43
2018-04-09T02:38:43.110Z,19.00
2018-04-09T02:41:10.372Z,14.83
2018-04-09T02:43:37.660Z,13.07
2018-04-09T02:46:04.948Z,11.63
2018-04-09T02:48:32.221Z,15.10
2018-04-09T02:50:59.573Z,20.03
2018-04-09T02:53:26.859Z,11.93
2018-04-09T02:55:54.151Z,14.43
2018-04-09T02:58:21.479Z,16.03
2018-04-09T03:00:48.779Z,20.90
2018-04-09T03:03:16.090Z,9.83
2018-04-09T03:05:43.359Z,8.23
2018-04-09T03:08:12.476Z,26.80
2018-04-09T03:10:39.852Z,13.43
2018-04-09T03:13:07.171Z,17.90
2018-04-09T03:15:34.436Z,9.67
2018-04-09T03:18:01.736Z,15.97
2018-04-09T03:20:29.903Z,11.70
2018-04-09T03:22:57.195Z,10.87
2018-04-09T03:25:24.491Z,14.53
2018-04-09T03:27:52.399Z,11.07
2018-04-09T03:30:19.680Z,13.80
2018-04-09T03:32:47.032Z,20.03
2018-04-09T03:35:15.199Z,16.17
2018-04-09T03:37:42.497Z,21.47
2018-04-09T03:40:09.771Z,10.10
2018-04-09T03:42:37.102Z,21.73
2018-04-09T03:45:04.427Z,16.30
2018-04-09T03:47:31.790Z,12.40
2018-04-09T03:49:59.063Z,12.63
2018-04-09T03:52:26.370Z,21.27
2018-04-09T03:54:54.709Z,20.57
2018-04-09T03:57:21.961Z,10.90
2018-04-09T03:59:49.253Z,18.97
2018-04-09T04:02:16.518Z,9.50
2018-04-09T04:04:43.812Z,13.57
2018-04-09T04:07:11.091Z,12.43
2018-04-09T04:09:38.374Z,7.53
2018-04-09T04:12:05.657Z,21.50
2018-04-09T04:14:32.930Z,10.70
2018-04-09T04:17:06.167Z,11.73
2018-04-09T04:19:39.397Z,26.37
2018-04-09T04:22:06.697Z,13.37
2018-04-09T04:24:33.964Z,20.43
2018-04-09T04:27:01.324Z,19.73
2018-04-09T04:29:28.603Z,22.53
2018-04-09T04:31:55.909Z,13.20
2018-04-09T04:34:23.398Z,16.20
2018-04-09T04:36:50.731Z,12.00
2018-04-09T04:39:18.062Z,15.33
2018-04-09T04:41:45.316Z,15.13
2018-04-09T04:44:12.610Z,20.63
2018-04-09T04:46:39.886Z,18.43
2018-04-09T04:49:07.190Z,15.60
2018-04-09T04:51:34.467Z,26.00
2018-04-09T04:54:01.780Z,20.83
2018-04-09T04:56:29.073Z,18.30
2018-04-09T04:58:56.347Z,22.57
2018-04-09T05:01:23.766Z,17.53
2018-04-09T05:03:51.031Z,18.50
2018-04-09T05:06:19.106Z,26.20
2018-04-09T05:08:47.005Z,24.27
2018-04-09T05:11:14.264Z,38.80
2018-04-09T05:13:41.547Z,30.87
2018-04-09T05:16:08.830Z,18.43
2018-04-09T05:18:36.118Z,17.43
2018-04-09T05:21:03.435Z,17.83
2018-04-09T05:23:30.741Z,15.43
2018-04-09T05:25:58.198Z,21.27
2018-04-09T05:28:25.464Z,22.73
2018-04-09T05:30:52.759Z,19.63
2018-04-09T05:33:20.081Z,21.30
2018-04-09T05:35:47.385Z,24.13
2018-04-09T05:38:17.149Z,31.03
2018-04-09T05:40:44.463Z,19.00
2018-04-09T05:43:11.753Z,14.30
2018-04-09T05:45:39.053Z,18.70
2018-04-09T05:48:06.349Z,29.27
2018-04-09T05:50:33.708Z,23.67
2018-04-09T05:53:00.988Z,36.13
2018-04-09T05:55:28.276Z,35.47
2018-04-09T05:57:55.573Z,27.40
2018-04-09T06:00:22.935Z,30.00
2018-04-09T06:02:50.224Z,20.87
2018-04-09T06:05:17.523Z,46.37
2018-04-09T06:07:44.823Z,36.37
2018-04-09T06:10:12.112Z,62.27
2018-04-09T06:12:39.518Z,22.97
2018-04-09T06:15:06.823Z,28.43
2018-04-09T06:17:34.094Z,18.30
2018-04-09T06:20:01.415Z,21.80
2018-04-09T06:22:28.715Z,23.00
2018-04-09T06:24:55.984Z,20.83
2018-04-09T06:27:23.289Z,33.50
2018-04-09T06:29:50.629Z,34.60
2018-04-09T06:32:17.937Z,24.13
2018-04-09T06:34:45.249Z,40.53
2018-04-09T06:37:12.536Z,19.23
2018-04-09T06:39:39.806Z,32.50
2018-04-09T06:42:07.096Z,20.63
2018-04-09T06:44:34.431Z,26.00
2018-04-09T06:47:01.719Z,16.53
2018-04-09T06:49:29.023Z,23.27
2018-04-09T06:51:56.303Z,31.70
2018-04-09T06:54:23.590Z,13.73
2018-04-09T06:56:50.871Z,26.43
2018-04-09T06:59:18.159Z,25.10
2018-04-09T07:01:45.469Z,22.17
2018-04-09T07:04:12.816Z,19.83
2018-04-09T07:06:40.586Z,21.13
2018-04-09T07:09:07.941Z,28.33
2018-04-09T07:11:36.154Z,29.57
2018-04-09T07:14:03.455Z,25.13
2018-04-09T07:16:30.757Z,29.80
2018-04-09T07:18:58.026Z,36.27
2018-04-09T07:21:25.306Z,18.67
2018-04-09T07:23:52.619Z,34.67
2018-04-09T07:26:19.929Z,54.13
2018-04-09T07:28:47.458Z,29.70
2018-04-09T07:31:14.750Z,27.77
2018-04-09T07:36:15.724Z,48.77
2018-04-09T07:38:42.984Z,46.83
2018-04-09T07:41:10.337Z,31.60
2018-04-09T07:43:37.669Z,31.30
2018-04-09T07:46:04.942Z,18.10
2018-04-09T07:48:32.261Z,19.93
2018-04-09T07:50:59.650Z,15.40
2018-04-09T07:53:26.949Z,28.97
2018-04-09T07:55:54.257Z,51.03
2018-04-09T07:58:21.566Z,33.57
2018-04-09T08:00:49.324Z,23.80
2018-04-09T08:03:17.277Z,24.10
2018-04-09T08:05:44.582Z,31.53
2018-04-09T08:08:12.573Z,15.37
2018-04-09T08:10:40.424Z,33.43
2018-04-09T08:13:07.690Z,16.03
2018-04-09T08:15:34.983Z,15.77
2018-04-09T08:18:02.316Z,33.20
2018-04-09T08:20:29.615Z,20.47
2018-04-09T08:22:56.892Z,31.77
2018-04-09T08:25:24.683Z,20.07
2018-04-09T08:27:52.049Z,15.40
2018-04-09T08:30:19.362Z,18.03
2018-04-09T08:32:46.668Z,29.33
2018-04-09T08:35:14.332Z,18.87
2018-04-09T08:37:41.606Z,29.20
2018-04-09T08:40:08.927Z,25.00
2018-04-09T08:42:36.212Z,18.73
2018-04-09T08:45:03.499Z,32.93
2018-04-09T08:47:30.823Z,35.80
2018-04-09T08:49:58.145Z,25.97
2018-04-09T08:52:25.439Z,39.57
2018-04-09T08:54:52.739Z,30.10
2018-04-09T08:57:20.024Z,32.97
2018-04-09T08:59:47.330Z,50.97
2018-04-09T09:02:14.619Z,20.57
2018-04-09T09:04:41.979Z,25.87
2018-04-09T09:07:09.255Z,24.23
2018-04-09T09:09:36.562Z,20.57
2018-04-09T09:12:03.864Z,19.13
2018-04-09T09:14:31.196Z,25.63
2018-04-09T09:16:58.690Z,32.53
2018-04-09T09:19:25.979Z,33.23
2018-04-09T09:21:53.250Z,31.13
2018-04-09T09:24:21.491Z,33.80
2018-04-09T09:26:48.812Z,57.03
2018-04-09T09:29:16.116Z,32.40
2018-04-09T09:31:43.408Z,31.07
2018-04-09T09:34:10.731Z,20.87
2018-04-09T09:36:38.006Z,20.47
2018-04-09T09:39:05.281Z,21.20
2018-04-09T09:41:32.591Z,22.83
2018-04-09T09:43:59.904Z,25.40
2018-04-09T09:46:27.204Z,25.63
2018-04-09T09:48:54.490Z,37.13
2018-04-09T09:51:22.106Z,21.23
2018-04-09T09:53:50.231Z,32.57
2018-04-09T09:56:17.577Z,19.13
2018-04-09T09:58:44.882Z,24.93
2018-04-09T10:01:12.186Z,20.80
2018-04-09T10:03:39.947Z,21.83
2018-04-09T10:06:08.346Z,21.73
2018-04-09T10:08:35.705Z,16.90
2018-04-09T10:11:03.034Z,20.40
2018-04-09T10:13:30.515Z,15.77
2018-04-09T10:15:57.930Z,11.50
2018-04-09T10:18:25.285Z,11.63
2018-04-09T10:20:52.681Z,11.50
2018-04-09T10:23:20.062Z,15.20
2018-04-09T10:25:47.960Z,13.00
2018-04-09T10:28:15.250Z,12.47
2018-04-09T10:30:42.556Z,16.23
2018-04-09T10:33:09.887Z,15.43
2018-04-09T10:35:37.987Z,15.30
2018-04-09T10:38:05.280Z,12.10
2018-04-09T10:40:32.861Z,9.13
2018-04-09T10:43:00.168Z,12.13
2018-04-09T10:45:27.468Z,12.67
2018-04-09T10:47:56.235Z,20.03
2018-04-09T10:50:24.346Z,10.13
2018-04-09T10:52:51.638Z,7.83
2018-04-09T10:55:19.020Z,9.27
2018-04-09T10:57:46.767Z,6.87
2018-04-09T11:00:14.055Z,6.20
2018-04-09T11:02:41.322Z,6.70
2018-04-09T11:05:08.626Z,7.80
2018-04-09T11:07:35.921Z,11.83
2018-04-09T11:10:03.413Z,7.83
2018-04-09T11:12:30.817Z,13.57
2018-04-09T11:14:58.619Z,8.23
2018-04-09T11:17:26.775Z,13.80
2018-04-09T11:19:54.144Z,8.23
2018-04-09T11:22:21.456Z,24.27
2018-04-09T11:24:48.835Z,3.80
2018-04-09T11:27:16.098Z,5.43
2018-04-09T11:29:43.399Z,4.53
2018-04-09T11:32:10.704Z,5.50
2018-04-09T11:34:38.048Z,3.53
2018-04-09T11:37:05.311Z,4.47
2018-04-09T11:39:32.622Z,14.47
2018-04-09T11:41:59.926Z,10.17
2018-04-09T11:44:27.249Z,14.20
2018-04-09T11:46:54.558Z,10.20
2018-04-09T11:49:21.863Z,15.90
2018-04-09T11:51:49.144Z,11.10
2018-04-09T11:54:16.446Z,19.80
2018-04-09T11:56:43.728Z,6.30
2018-04-09T11:59:10.997Z,8.17
2018-04-09T12:01:38.272Z,15.63
2018-04-09T12:04:05.670Z,7.10
2018-04-09T12:06:32.957Z,8.97
2018-04-09T12:09:00.311Z,6.47
2018-04-09T12:11:27.613Z,5.90
2018-04-09T12:13:55.245Z,5.67
2018-04-09T12:16:22.559Z,9.83
2018-04-09T12:18:49.836Z,9.03
2018-04-09T12:21:17.150Z,4.93
2018-04-09T12:23:44.411Z,7.37
2018-04-09T12:26:11.936Z,11.53
2018-04-09T12:28:39.221Z,7.50
2018-04-09T12:31:07.458Z,29.07
2018-04-09T12:33:35.016Z,10.53
2018-04-09T12:36:02.417Z,16.93
2018-04-09T12:38:29.768Z,7.73
2018-04-09T12:40:57.067Z,12.13
2018-04-09T12:43:24.487Z,13.90
2018-04-09T12:45:52.406Z,12.73
2018-04-09T12:48:19.714Z,6.03
2018-04-09T12:50:47.025Z,16.30
2018-04-09T12:53:14.358Z,12.37
2018-04-09T12:55:41.653Z,5.10
2018-04-09T12:58:08.980Z,11.60
2018-04-09T13:00:36.261Z,11.50
2018-04-09T13:03:03.538Z,5.50
2018-04-09T13:05:30.906Z,6.47
2018-04-09T13:07:58.273Z,4.87
2018-04-09T13:10:26.337Z,10.33
2018-04-09T13:12:53.625Z,8.10
2018-04-09T13:15:20.922Z,12.20
2018-04-09T13:17:48.203Z,15.00
2018-04-09T13:20:15.481Z,8.87
2018-04-09T13:22:42.799Z,5.30
2018-04-09T13:25:10.113Z,8.93
2018-04-09T13:27:37.381Z,6.57
2018-04-09T13:30:05.078Z,8.63
2018-04-09T13:32:33.468Z,13.10
2018-04-09T13:35:00.801Z,16.57
2018-04-09T13:37:28.905Z,5.10
2018-04-09T13:39:56.182Z,12.17
2018-04-09T13:42:23.476Z,6.93
2018-04-09T13:44:51.344Z,5.30
2018-04-09T13:47:18.625Z,6.13
2018-04-09T13:49:45.910Z,4.83
2018-04-09T13:52:13.305Z,5.80
2018-04-09T13:54:40.595Z,12.13
2018-04-09T13:57:07.868Z,6.37
2018-04-09T13:59:35.139Z,5.63
2018-04-09T14:02:02.452Z,3.77
2018-04-09T14:04:29.731Z,2.43
2018-04-09T14:06:57.069Z,9.80
2018-04-09T14:09:24.380Z,4.23
2018-04-09T14:11:51.710Z,4.47
2018-04-09T14:14:19.027Z,4.17
2018-04-09T14:16:46.293Z,9.83
2018-04-09T14:19:13.592Z,10.40
2018-04-09T14:21:40.925Z,8.30
2018-04-09T14:24:08.208Z,7.90
2018-04-09T14:26:35.763Z,4.50
2018-04-09T14:29:03.161Z,5.20
2018-04-09T14:31:30.592Z,2.97
2018-04-09T14:33:58.326Z,14.40
2018-04-09T14:36:25.887Z,5.70
2018-04-09T14:38:54.250Z,3.30
2018-04-09T14:41:21.564Z,5.73
2018-04-09T14:43:49.223Z,4.00
2018-04-09T14:46:16.620Z,6.07
2018-04-09T14:48:44.155Z,6.30
2018-04-09T14:51:11.491Z,2.70
2018-04-09T14:53:44.643Z,7.53
2018-04-09T14:56:11.974Z,11.23
2018-04-09T14:58:40.356Z,4.93
2018-04-09T15:01:07.717Z,10.47
2018-04-09T15:03:35.113Z,9.13
2018-04-09T15:06:02.446Z,2.70
2018-04-09T15:08:29.860Z,10.40
2018-04-09T15:10:57.205Z,6.73
2018-04-09T15:13:24.607Z,4.13
2018-04-09T15:15:52.025Z,8.50
2018-04-09T15:18:19.493Z,7.23
2018-04-09T15:20:46.844Z,3.70
2018-04-09T15:23:14.142Z,3.73
2018-04-09T15:25:41.477Z,4.00
2018-04-09T15:28:09.285Z,13.43
2018-04-09T15:30:37.460Z,7.50
2018-04-09T15:33:05.382Z,8.03
2018-04-09T15:35:32.874Z,7.13
2018-04-09T15:38:00.434Z,4.90
2018-04-09T15:40:28.430Z,8.13
2018-04-09T15:42:55.773Z,3.37
2018-04-09T15:45:23.071Z,4.30
2018-04-09T15:47:50.913Z,6.37
2018-04-09T15:50:19.245Z,8.47
2018-04-09T15:52:46.979Z,13.80
2018-04-09T15:55:14.319Z,10.83
2018-04-09T15:57:41.588Z,11.80
2018-04-09T16:00:08.890Z,7.10
2018-04-09T16:02:36.329Z,13.40
2018-04-09T16:05:03.638Z,12.33
2018-04-09T16:07:36.776Z,13.80
2018-04-09T16:10:04.147Z,8.93
2018-04-09T16:12:31.600Z,4.90
2018-04-09T16:14:59.012Z,9.57
2018-04-09T16:17:26.361Z,9.57
2018-04-09T16:19:53.789Z,9.13
2018-04-09T16:22:21.155Z,14.77
2018-04-09T16:24:48.611Z,17.50
2018-04-09T16:27:15.985Z,14.60
2018-04-09T16:29:43.358Z,15.33
2018-04-09T16:32:10.707Z,6.33
2018-04-09T16:34:38.014Z,21.27
2018-04-09T16:37:05.327Z,8.83
2018-04-09T16:39:32.632Z,6.23
2018-04-09T16:41:59.950Z,12.83
2018-04-09T16:44:27.225Z,3.03
2018-04-09T16:46:54.595Z,9.50
2018-04-09T16:49:21.980Z,12.70
2018-04-09T16:51:49.268Z,9.87
2018-04-09T16:54:16.605Z,5.67
2018-04-09T16:56:44.215Z,11.43
2018-04-09T16:59:11.902Z,9.03
2018-04-09T17:01:39.177Z,12.00
2018-04-09T17:04:06.487Z,10.43
2018-04-09T17:06:33.881Z,4.57
2018-04-09T17:09:01.258Z,5.70
2018-04-09T17:11:28.667Z,4.50
2018-04-09T17:13:56.014Z,4.13
2018-04-09T17:16:23.647Z,6.63
2018-04-09T17:18:50.921Z,6.50
2018-04-09T17:21:18.230Z,20.70
2018-04-09T17:23:46.546Z,14.40
2018-04-09T17:26:13.828Z,8.07
2018-04-09T17:28:41.117Z,13.13
2018-04-09T17:31:08.393Z,4.67
2018-04-09T17:33:35.699Z,5.57
2018-04-09T17:36:03.002Z,29.53
2018-04-09T17:38:30.322Z,9.03
2018-04-09T17:40:57.925Z,3.70
2018-04-09T17:43:25.203Z,14.93
2018-04-09T17:45:52.520Z,3.73
2018-04-09T17:48:19.825Z,4.50
2018-04-09T17:50:47.144Z,6.80
2018-04-09T17:53:14.392Z,13.67
2018-04-09T17:55:41.667Z,9.50
2018-04-09T17:58:09.069Z,7.20
2018-04-09T18:00:36.333Z,6.97
2018-04-09T18:03:03.646Z,6.47
2018-04-09T18:05:30.937Z,9.20
2018-04-09T18:07:58.229Z,5.53
2018-04-09T18:10:25.521Z,7.80
2018-04-09T18:12:52.869Z,13.10
2018-04-09T18:15:20.152Z,6.30
2018-04-09T18:17:47.441Z,7.27
2018-04-09T18:20:14.735Z,5.60
2018-04-09T18:22:42.517Z,4.50
2018-04-09T18:25:09.808Z,6.33
2018-04-09T18:27:37.908Z,13.00
2018-04-09T18:30:05.172Z,4.10
2018-04-09T18:32:33.695Z,4.63
2018-04-09T18:35:01.002Z,8.27
2018-04-09T18:37:29.331Z,6.37
2018-04-09T18:39:56.986Z,7.20
2018-04-09T18:42:24.319Z,4.90
2018-04-09T18:44:51.568Z,8.10
2018-04-09T18:47:18.848Z,5.97
2018-04-09T18:49:46.144Z,5.60
2018-04-09T18:52:13.438Z,7.93
2018-04-09T18:54:40.749Z,4.80
2018-04-09T18:57:08.061Z,8.73
2018-04-09T18:59:35.333Z,5.63
2018-04-09T19:02:03.502Z,5.07
2018-04-09T19:04:30.858Z,11.33
2018-04-09T19:06:59.249Z,6.53
2018-04-09T19:09:26.537Z,8.23
2018-04-09T19:11:53.809Z,19.43
2018-04-09T19:14:21.099Z,13.70
2018-04-09T19:16:48.411Z,8.20
2018-04-09T19:19:15.693Z,8.30
2018-04-09T19:21:43.785Z,8.27
2018-04-09T19:24:11.048Z,6.67
2018-04-09T19:26:38.652Z,10.57
2018-04-09T19:29:06.056Z,12.40
2018-04-09T19:31:33.421Z,4.50
2018-04-09T19:34:00.773Z,4.97
2018-04-09T19:36:42.953Z,3.90
2018-04-09T19:39:15.917Z,15.50
2018-04-09T19:41:55.074Z,6.37
2018-04-09T19:44:22.791Z,13.57
2018-04-09T19:46:50.086Z,10.67
2018-04-09T19:49:17.398Z,10.60
2018-04-09T19:51:44.685Z,8.60
2018-04-09T19:54:11.969Z,9.03
2018-04-09T19:56:39.371Z,9.73
2018-04-09T19:59:06.724Z,6.33
2018-04-09T20:01:34.023Z,11.93
2018-04-09T20:04:01.405Z,6.10
2018-04-09T20:06:28.710Z,6.03
2018-04-09T20:08:56.949Z,5.20
2018-04-09T20:11:24.259Z,10.60
2018-04-09T20:13:51.548Z,9.87
2018-04-09T20:16:18.901Z,6.93
2018-04-09T20:18:46.162Z,5.37
2018-04-09T20:21:13.446Z,6.93
2018-04-09T20:23:40.741Z,13.33
2018-04-09T20:26:08.016Z,6.40
2018-04-09T20:28:36.596Z,13.30
2018-04-09T20:31:05.874Z,14.67
2018-04-09T20:33:33.183Z,12.13
2018-04-09T20:36:00.503Z,7.20
2018-04-09T20:38:28.179Z,5.43
2018-04-09T20:40:55.475Z,9.50
2018-04-09T20:43:22.742Z,11.87
2018-04-09T20:45:50.916Z,12.03
2018-04-09T20:48:18.190Z,14.20
2018-04-09T20:50:45.476Z,8.20
2018-04-09T20:53:12.778Z,7.40
2018-04-09T20:55:40.086Z,7.57
2018-04-09T20:58:07.688Z,5.87
2018-04-09T21:00:35.069Z,7.60
2018-04-09T21:03:02.352Z,14.80
2018-04-09T21:05:30.124Z,7.73
2018-04-09T21:07:57.598Z,4.97
2018-04-09T21:10:24.912Z,9.07
2018-04-09T21:12:53.004Z,6.93
2018-04-09T21:15:20.335Z,18.63
2018-04-09T21:17:47.680Z,12.50
2018-04-09T21:20:14.982Z,8.63
2018-04-09T21:22:42.272Z,16.40
2018-04-09T21:25:09.545Z,10.00
2018-04-09T21:27:36.915Z,16.70
2018-04-09T21:30:04.256Z,10.07
2018-04-09T21:32:31.534Z,15.17
2018-04-09T21:34:58.876Z,10.20
2018-04-09T21:37:26.164Z,12.60
2018-04-09T21:39:53.508Z,6.73
2018-04-09T21:42:20.789Z,12.50
2018-04-09T21:44:48.088Z,8.17
2018-04-09T21:47:15.372Z,15.80
2018-04-09T21:49:42.649Z,13.10
2018-04-09T21:52:09.938Z,16.90
2018-04-09T21:54:37.224Z,7.67
2018-04-09T21:57:04.509Z,15.83
2018-04-09T21:59:31.813Z,11.20
2018-04-09T22:01:59.096Z,11.90
2018-04-09T22:04:26.374Z,10.17
2018-04-09T22:06:53.725Z,7.63
2018-04-09T22:09:21.003Z,20.50
2018-04-09T22:11:48.305Z,18.53
2018-04-09T22:14:15.580Z,7.20
2018-04-09T22:16:42.859Z,7.77
2018-04-09T22:19:10.127Z,8.90
2018-04-09T22:21:37.434Z,14.80
2018-04-09T22:24:04.812Z,7.40
2018-04-09T22:26:32.092Z,8.53
2018-04-09T22:28:59.429Z,8.23
2018-04-09T22:31:26.706Z,6.67
2018-04-09T22:33:54.000Z,9.63
2018-04-09T22:36:21.283Z,7.40
2018-04-09T22:38:48.567Z,9.83
2018-04-09T22:41:15.845Z,7.63
2018-04-09T22:43:43.136Z,9.80
2018-04-09T22:46:10.440Z,6.70
2018-04-09T22:48:37.732Z,12.03
2018-04-09T22:51:05.064Z,6.07
2018-04-09T22:56:05.844Z,12.43
2018-04-09T22:58:34.153Z,8.70
2018-04-09T23:01:01.581Z,18.30
2018-04-09T23:03:28.871Z,9.50
2018-04-09T23:05:56.173Z,5.63
2018-04-09T23:08:23.445Z,6.33
2018-04-09T23:10:50.755Z,14.83
2018-04-09T23:13:18.072Z,5.67
2018-04-09T23:15:45.361Z,9.20
2018-04-09T23:18:12.672Z,8.33
2018-04-09T23:20:39.955Z,4.63
2018-04-09T23:23:07.255Z,10.50
2018-04-09T23:25:34.593Z,16.97
2018-04-09T23:28:01.876Z,14.30
2018-04-09T23:30:29.180Z,16.40
2018-04-09T23:32:56.456Z,7.37
2018-04-09T23:35:23.731Z,8.67
2018-04-09T23:37:51.007Z,7.07
2018-04-09T23:40:18.309Z,10.30
2018-04-09T23:42:45.589Z,5.70
2018-04-09T23:45:12.853Z,10.43
2018-04-09T23:47:40.130Z,6.87
2018-04-09T23:50:07.692Z,7.97
2018-04-09T23:52:34.966Z,5.40
2018-04-09T23:55:02.250Z,7.17
2018-04-09T23:57:29.547Z,6.57
2018-04-09T23:59:56.847Z,9.47
